createdAt,value
2023-04-19T00:02:02.831Z,11.39
2023-04-19T00:04:30.293Z,11.57
2023-04-19T00:06:58.391Z,11.47
2023-04-19T00:09:25.333Z,11.40
2023-04-19T00:11:52.868Z,11.34
2023-04-19T00:14:19.815Z,11.32
2023-04-19T00:16:46.524Z,11.34
2023-04-19T00:19:13.256Z,11.27
2023-04-19T00:21:39.952Z,11.46
2023-04-19T00:24:06.724Z,11.34
2023-04-19T00:26:33.373Z,11.34
2023-04-19T00:29:00.472Z,11.33
2023-04-19T00:31:27.243Z,11.27
2023-04-19T00:33:54.114Z,11.30
2023-04-19T00:36:21.000Z,11.25
2023-04-19T00:38:47.841Z,11.36
2023-04-19T00:41:14.558Z,11.38
2023-04-19T00:43:41.333Z,11.32
2023-04-19T00:46:08.093Z,11.23
2023-04-19T00:48:38.468Z,11.20
2023-04-19T00:51:05.398Z,11.24
2023-04-19T00:53:32.229Z,11.23
2023-04-19T00:56:02.002Z,11.16
2023-04-19T00:58:31.325Z,11.07
2023-04-19T01:00:58.201Z,11.16
2023-04-19T01:03:27.343Z,11.17
2023-04-19T01:05:54.752Z,11.28
2023-04-19T01:08:21.425Z,11.32
2023-04-19T01:10:48.172Z,11.19
2023-04-19T01:13:15.796Z,11.28
2023-04-19T01:15:42.502Z,11.26
2023-04-19T01:18:09.208Z,11.22
2023-04-19T01:20:35.988Z,11.18
2023-04-19T01:23:02.757Z,11.28
2023-04-19T01:25:29.614Z,11.14
2023-04-19T01:27:56.343Z,11.25
2023-04-19T01:30:24.076Z,11.21
2023-04-19T01:32:50.925Z,11.14
2023-04-19T01:35:17.805Z,11.13
2023-04-19T01:37:44.457Z,11.18
2023-04-19T01:40:11.596Z,11.19
2023-04-19T01:42:38.312Z,11.16
2023-04-19T01:45:05.856Z,11.10
2023-04-19T01:47:32.839Z,11.17
2023-04-19T01:50:02.394Z,11.23
2023-04-19T01:52:30.407Z,11.13
2023-04-19T01:54:57.103Z,11.27
2023-04-19T01:57:23.785Z,11.25
2023-04-19T01:59:50.449Z,11.22
2023-04-19T02:02:17.298Z,11.25
2023-04-19T02:04:44.215Z,11.21
2023-04-19T02:07:11.568Z,11.20
2023-04-19T02:09:38.842Z,11.26
2023-04-19T02:12:06.008Z,11.17
2023-04-19T02:14:32.949Z,11.29
2023-04-19T02:17:00.034Z,11.23
2023-04-19T02:19:26.872Z,11.27
2023-04-19T02:21:57.506Z,11.18
2023-04-19T02:24:24.820Z,11.26
2023-04-19T02:26:51.649Z,11.33
2023-04-19T02:29:18.487Z,11.17
2023-04-19T02:31:46.326Z,11.24
2023-04-19T02:34:13.338Z,11.13
2023-04-19T02:36:40.401Z,11.35
2023-04-19T02:39:07.048Z,11.27
2023-04-19T02:41:33.721Z,11.17
2023-04-19T02:44:02.154Z,11.19
2023-04-19T02:46:28.802Z,11.37
2023-04-19T02:48:55.537Z,11.33
2023-04-19T02:51:22.934Z,11.27
2023-04-19T02:53:49.600Z,11.30
2023-04-19T02:56:16.618Z,11.29
2023-04-19T02:58:43.674Z,11.21
2023-04-19T03:01:11.622Z,11.17
2023-04-19T03:03:38.583Z,11.18
2023-04-19T03:06:05.525Z,11.25
2023-04-19T03:08:33.065Z,11.14
2023-04-19T03:10:59.979Z,11.11
2023-04-19T03:13:26.724Z,11.13
2023-04-19T03:15:53.444Z,11.10
2023-04-19T03:18:22.798Z,11.23
2023-04-19T03:20:51.358Z,11.17
2023-04-19T03:23:18.134Z,11.11
2023-04-19T03:25:46.185Z,11.10
2023-04-19T03:28:24.560Z,11.11
2023-04-19T03:31:29.825Z,11.27
2023-04-19T03:33:56.897Z,11.09
2023-04-19T03:36:29.157Z,11.05
2023-04-19T03:38:57.143Z,11.02
2023-04-19T03:41:25.521Z,10.99
2023-04-19T03:44:13.110Z,11.04
2023-04-19T03:46:43.288Z,10.97
2023-04-19T03:49:10.368Z,10.97
2023-04-19T03:51:37.747Z,11.01
2023-04-19T03:54:04.536Z,11.03
2023-04-19T03:56:32.354Z,11.08
2023-04-19T03:58:59.280Z,11.05
2023-04-19T04:01:28.127Z,11.08
2023-04-19T04:03:56.097Z,11.13
2023-04-19T04:06:23.662Z,10.98
2023-04-19T04:08:50.591Z,11.00
2023-04-19T04:11:17.400Z,10.94
2023-04-19T04:13:47.108Z,11.02
2023-04-19T04:16:18.847Z,10.87
2023-04-19T04:18:45.620Z,10.85
2023-04-19T04:21:14.709Z,10.91
2023-04-19T04:23:43.846Z,10.86
2023-04-19T04:26:20.078Z,10.99
2023-04-19T04:29:09.819Z,10.85
2023-04-19T04:31:39.662Z,10.88
2023-04-19T04:34:06.473Z,10.80
2023-04-19T04:36:38.949Z,11.06
2023-04-19T04:39:10.221Z,11.00
2023-04-19T04:41:36.879Z,10.89
2023-04-19T04:44:12.606Z,10.88
2023-04-19T04:46:41.153Z,10.93
2023-04-19T04:49:09.316Z,11.00
2023-04-19T04:51:37.206Z,10.85
2023-04-19T04:54:06.734Z,10.88
2023-04-19T04:56:36.984Z,10.76
2023-04-19T04:59:04.006Z,10.90
2023-04-19T05:01:35.226Z,10.88
2023-04-19T05:04:02.503Z,10.98
2023-04-19T05:06:29.247Z,11.03
2023-04-19T05:08:55.985Z,11.07
2023-04-19T05:11:40.938Z,11.16
2023-04-19T05:14:07.718Z,11.08
2023-04-19T05:16:34.904Z,11.20
2023-04-19T05:19:02.833Z,11.28
2023-04-19T05:21:34.576Z,11.17
2023-04-19T05:24:03.589Z,11.31
2023-04-19T05:26:32.172Z,11.34
2023-04-19T05:28:59.879Z,11.47
2023-04-19T05:31:39.552Z,11.56
2023-04-19T05:34:23.233Z,11.56
2023-04-19T05:36:50.965Z,11.51
2023-04-19T05:39:17.765Z,11.39
2023-04-19T05:41:44.505Z,11.33
2023-04-19T05:44:11.575Z,11.37
2023-04-19T05:46:38.446Z,11.32
2023-04-19T05:49:07.256Z,11.52
2023-04-19T05:51:43.747Z,11.69
2023-04-19T05:54:34.475Z,11.77
2023-04-19T05:57:02.724Z,11.94
2023-04-19T05:59:29.578Z,12.09
2023-04-19T06:01:56.790Z,12.12
2023-04-19T06:04:24.260Z,12.16
2023-04-19T06:06:51.538Z,12.31
2023-04-19T06:09:18.611Z,12.36
2023-04-19T06:11:50.881Z,12.43
2023-04-19T06:14:19.146Z,12.27
2023-04-19T06:16:46.655Z,11.98
2023-04-19T06:19:13.633Z,11.91
2023-04-19T06:21:40.408Z,11.56
2023-04-19T06:24:07.682Z,11.82
2023-04-19T06:26:34.704Z,11.65
2023-04-19T06:29:01.581Z,11.80
2023-04-19T06:31:28.559Z,11.91
2023-04-19T06:33:55.369Z,12.02
2023-04-19T06:36:22.164Z,11.80
2023-04-19T06:38:49.888Z,12.11
2023-04-19T06:41:16.900Z,12.51
2023-04-19T06:43:44.747Z,13.04
2023-04-19T06:46:14.505Z,13.43
2023-04-19T06:48:41.840Z,13.71
2023-04-19T06:51:09.067Z,13.74
2023-04-19T06:53:36.414Z,13.83
2023-04-19T06:56:07.087Z,14.12
2023-04-19T06:58:35.189Z,14.30
2023-04-19T07:01:06.355Z,14.51
2023-04-19T07:03:33.755Z,14.58
2023-04-19T07:06:00.862Z,14.80
2023-04-19T07:08:34.755Z,14.77
2023-04-19T07:11:05.634Z,14.23
2023-04-19T07:13:32.429Z,14.36
2023-04-19T07:15:59.388Z,14.07
2023-04-19T07:18:26.084Z,13.62
2023-04-19T07:20:52.834Z,13.30
2023-04-19T07:23:19.770Z,13.12
2023-04-19T07:25:46.626Z,13.16
2023-04-19T07:28:13.373Z,12.84
2023-04-19T07:30:40.311Z,12.82
2023-04-19T07:33:08.587Z,12.99
2023-04-19T07:35:35.846Z,12.92
2023-04-19T07:38:02.625Z,12.87
2023-04-19T07:40:29.371Z,12.83
2023-04-19T07:42:56.578Z,12.82
2023-04-19T07:45:23.937Z,12.92
2023-04-19T07:47:53.339Z,12.76
2023-04-19T07:50:21.984Z,12.76
2023-04-19T07:52:49.880Z,12.61
2023-04-19T07:55:16.578Z,12.61
2023-04-19T07:57:48.034Z,12.68
2023-04-19T08:00:15.779Z,12.54
2023-04-19T08:02:48.020Z,12.67
2023-04-19T08:05:20.050Z,12.64
2023-04-19T08:07:46.948Z,12.86
2023-04-19T08:10:13.975Z,12.82
2023-04-19T08:12:50.428Z,12.80
2023-04-19T08:17:57.616Z,13.11
2023-04-19T08:20:24.503Z,13.22
2023-04-19T08:22:51.388Z,13.24
2023-04-19T08:25:18.092Z,13.08
2023-04-19T08:27:47.766Z,13.01
2023-04-19T08:30:14.705Z,12.98
2023-04-19T08:32:41.550Z,12.94
2023-04-19T08:35:08.809Z,12.92
2023-04-19T08:37:35.485Z,13.14
2023-04-19T08:40:02.279Z,13.05
2023-04-19T08:42:36.444Z,13.03
2023-04-19T08:47:51.900Z,13.05
2023-04-19T08:50:31.999Z,13.18
2023-04-19T08:53:16.403Z,13.19
2023-04-19T08:58:32.907Z,13.33
2023-04-19T09:01:12.856Z,13.48
2023-04-19T09:03:59.460Z,13.46
2023-04-19T09:06:28.013Z,13.70
2023-04-19T09:09:28.396Z,13.58
2023-04-19T09:12:00.786Z,13.75
2023-04-19T09:14:28.807Z,13.87
2023-04-19T09:17:13.421Z,13.87
2023-04-19T09:19:50.327Z,13.92
2023-04-19T09:22:18.282Z,13.93
2023-04-19T09:27:36.268Z,13.78
2023-04-19T09:30:04.825Z,13.69
2023-04-19T09:32:47.994Z,13.56
2023-04-19T09:35:15.017Z,13.50
2023-04-19T09:38:02.097Z,13.60
2023-04-19T09:40:28.624Z,13.76
2023-04-19T09:43:08.709Z,13.60
2023-04-19T09:45:43.990Z,13.57
2023-04-19T09:48:12.587Z,13.61
2023-04-19T09:51:06.249Z,13.74
2023-04-19T09:53:36.696Z,13.73
2023-04-19T09:56:05.286Z,13.57
2023-04-19T09:58:46.239Z,13.52
2023-04-19T10:01:20.077Z,13.65
2023-04-19T10:03:50.506Z,13.45
2023-04-19T10:08:51.060Z,13.47
2023-04-19T10:11:21.757Z,13.51
2023-04-19T10:13:50.528Z,13.33
2023-04-19T10:16:19.995Z,13.31
2023-04-19T10:18:49.888Z,13.38
2023-04-19T10:21:17.222Z,13.36
2023-04-19T10:23:44.309Z,13.15
2023-04-19T10:26:11.253Z,13.18
2023-04-19T10:28:38.321Z,12.99
2023-04-19T10:31:05.861Z,12.91
2023-04-19T10:33:37.594Z,12.98
2023-04-19T10:36:08.287Z,13.04
2023-04-19T10:38:39.435Z,13.02
2023-04-19T10:41:14.558Z,12.99
2023-04-19T10:43:55.048Z,12.94
2023-04-19T10:46:21.752Z,12.92
2023-04-19T10:48:53.275Z,12.84
2023-04-19T10:51:43.293Z,12.90
2023-04-19T10:54:27.556Z,13.10
2023-04-19T10:57:04.626Z,13.15
2023-04-19T10:59:42.948Z,13.37
2023-04-19T11:02:22.057Z,13.70
2023-04-19T11:04:48.860Z,14.08
2023-04-19T11:07:18.203Z,14.53
2023-04-19T11:09:46.028Z,14.59
2023-04-19T11:12:14.866Z,14.74
2023-04-19T11:14:57.845Z,14.81
2023-04-19T11:17:31.144Z,14.85
2023-04-19T11:20:03.331Z,14.89
2023-04-19T11:22:40.733Z,14.74
2023-04-19T11:25:18.063Z,14.70
2023-04-19T11:27:47.308Z,14.65
2023-04-19T11:30:16.594Z,14.84
2023-04-19T11:32:52.391Z,14.93
2023-04-19T11:35:21.117Z,14.96
2023-04-19T11:37:48.179Z,15.05
2023-04-19T11:40:16.991Z,15.14
2023-04-19T11:42:44.333Z,15.06
2023-04-19T11:45:25.786Z,15.17
2023-04-19T11:47:57.424Z,15.10
2023-04-19T11:50:37.631Z,15.12
2023-04-19T11:53:18.263Z,14.94
2023-04-19T11:55:46.059Z,15.20
2023-04-19T11:58:35.675Z,15.09
2023-04-19T12:01:08.294Z,15.03
2023-04-19T12:03:40.662Z,15.16
2023-04-19T12:06:12.260Z,15.22
2023-04-19T12:08:43.414Z,15.22
2023-04-19T12:11:10.298Z,15.21
2023-04-19T12:13:37.745Z,15.13
2023-04-19T12:16:05.195Z,15.26
2023-04-19T12:18:48.699Z,15.13
2023-04-19T12:21:25.737Z,15.08
2023-04-19T12:24:00.900Z,15.08
2023-04-19T12:26:29.040Z,15.25
2023-04-19T12:28:57.499Z,15.53
2023-04-19T12:31:24.541Z,15.62
2023-04-19T12:33:51.600Z,15.77
2023-04-19T12:36:18.296Z,15.66
2023-04-19T12:38:45.254Z,15.55
2023-04-19T12:41:12.026Z,15.47
2023-04-19T12:43:38.722Z,15.54
2023-04-19T12:46:05.507Z,15.37
2023-04-19T12:48:32.398Z,15.63
2023-04-19T12:50:59.105Z,15.70
2023-04-19T12:53:26.182Z,15.72
2023-04-19T12:55:52.842Z,15.83
2023-04-19T12:58:21.195Z,15.98
2023-04-19T13:00:47.912Z,15.90
2023-04-19T13:03:14.638Z,15.92
2023-04-19T13:05:41.569Z,15.94
2023-04-19T13:08:08.223Z,15.96
2023-04-19T13:10:34.958Z,15.97
2023-04-19T13:13:01.731Z,15.98
2023-04-19T13:15:29.481Z,16.10
2023-04-19T13:17:56.975Z,15.96
2023-04-19T13:20:23.770Z,16.06
2023-04-19T13:22:50.487Z,16.41
2023-04-19T13:25:17.244Z,16.02
2023-04-19T13:27:44.166Z,16.22
2023-04-19T13:30:11.215Z,16.15
2023-04-19T13:32:37.952Z,15.99
2023-04-19T13:35:05.165Z,16.03
2023-04-19T13:37:32.220Z,16.20
2023-04-19T13:40:10.653Z,16.14
2023-04-19T13:42:41.955Z,16.02
2023-04-19T13:45:09.954Z,16.06
2023-04-19T13:47:36.964Z,16.18
2023-04-19T13:50:03.903Z,16.17
2023-04-19T13:52:31.599Z,15.93
2023-04-19T13:54:58.233Z,15.82
2023-04-19T13:57:24.884Z,15.78
2023-04-19T13:59:51.579Z,15.88
2023-04-19T14:02:20.105Z,16.11
2023-04-19T14:04:46.988Z,15.99
2023-04-19T14:07:14.006Z,16.09
2023-04-19T14:09:42.285Z,16.30
2023-04-19T14:12:09.409Z,16.72
2023-04-19T14:14:36.107Z,16.70
2023-04-19T14:17:03.105Z,16.54
2023-04-19T14:19:29.904Z,16.37
2023-04-19T14:21:56.663Z,16.16
2023-04-19T14:24:23.413Z,15.86
2023-04-19T14:26:59.919Z,15.78
2023-04-19T14:29:34.210Z,15.72
2023-04-19T14:32:07.430Z,15.72
2023-04-19T14:34:43.711Z,15.81
2023-04-19T14:37:10.500Z,16.38
2023-04-19T14:39:37.460Z,17.03
2023-04-19T14:42:04.888Z,17.52
2023-04-19T14:44:31.835Z,17.58
2023-04-19T14:47:00.045Z,17.26
2023-04-19T14:49:27.099Z,16.70
2023-04-19T14:51:54.143Z,16.37
2023-04-19T14:54:21.050Z,16.08
2023-04-19T14:56:47.815Z,16.00
2023-04-19T14:59:14.750Z,16.07
2023-04-19T15:01:41.642Z,15.98
2023-04-19T15:04:08.921Z,16.42
2023-04-19T15:06:36.586Z,16.23
2023-04-19T15:09:03.454Z,22.15
2023-04-19T15:11:30.512Z,24.97
2023-04-19T15:13:57.445Z,27.41
2023-04-19T15:16:25.147Z,30.11
2023-04-19T15:18:52.451Z,31.42
2023-04-19T15:21:21.247Z,32.30
2023-04-19T15:23:49.806Z,29.37
2023-04-19T15:26:17.066Z,22.51
2023-04-19T15:28:44.883Z,20.36
2023-04-19T15:31:11.697Z,19.14
2023-04-19T15:33:38.632Z,17.95
2023-04-19T15:36:05.715Z,17.40
2023-04-19T15:38:32.898Z,17.25
2023-04-19T15:41:01.345Z,16.94
2023-04-19T15:43:28.363Z,16.56
2023-04-19T15:45:55.166Z,16.57
2023-04-19T15:48:22.174Z,16.26
2023-04-19T15:50:49.174Z,16.18
2023-04-19T15:53:16.441Z,16.23
2023-04-19T15:55:44.201Z,16.17
2023-04-19T15:58:10.982Z,16.23
2023-04-19T16:00:38.095Z,16.21
2023-04-19T16:03:04.935Z,15.90
2023-04-19T16:05:32.079Z,16.01
2023-04-19T16:08:07.235Z,15.97
2023-04-19T16:10:34.297Z,15.76
2023-04-19T16:13:01.426Z,15.90
2023-04-19T16:15:28.822Z,15.90
2023-04-19T16:17:55.748Z,15.58
2023-04-19T16:20:24.794Z,15.57
2023-04-19T16:22:51.776Z,15.73
2023-04-19T16:25:18.694Z,15.40
2023-04-19T16:27:46.739Z,15.33
2023-04-19T16:30:14.859Z,15.33
2023-04-19T16:32:42.382Z,15.35
2023-04-19T16:35:09.917Z,15.30
2023-04-19T16:37:37.206Z,15.26
2023-04-19T16:40:09.406Z,15.16
2023-04-19T16:42:37.594Z,15.18
2023-04-19T16:45:05.260Z,15.15
2023-04-19T16:47:34.035Z,15.10
2023-04-19T16:50:02.011Z,15.14
2023-04-19T16:52:32.919Z,14.88
2023-04-19T16:55:00.180Z,14.98
2023-04-19T16:57:26.894Z,14.92
2023-04-19T16:59:53.657Z,14.88
2023-04-19T17:02:20.702Z,14.92
2023-04-19T17:04:48.085Z,14.95
2023-04-19T17:07:14.878Z,14.82
2023-04-19T17:09:41.753Z,14.81
2023-04-19T17:12:08.518Z,14.63
2023-04-19T17:14:35.723Z,14.60
2023-04-19T17:17:02.685Z,14.67
2023-04-19T17:19:29.449Z,14.58
2023-04-19T17:21:56.383Z,14.51
2023-04-19T17:24:23.091Z,14.47
2023-04-19T17:26:50.977Z,14.46
2023-04-19T17:29:17.876Z,14.37
2023-04-19T17:31:44.745Z,14.34
2023-04-19T17:34:11.659Z,14.34
2023-04-19T17:36:38.746Z,14.29
2023-04-19T17:39:06.617Z,14.11
2023-04-19T17:41:34.002Z,13.95
2023-04-19T17:44:00.743Z,13.84
2023-04-19T17:46:27.475Z,13.84
2023-04-19T17:48:55.410Z,13.78
2023-04-19T17:51:22.554Z,13.62
2023-04-19T17:53:49.258Z,13.57
2023-04-19T17:56:15.995Z,13.54
2023-04-19T17:58:42.847Z,13.69
2023-04-19T18:01:10.388Z,13.57
2023-04-19T18:03:37.468Z,13.64
2023-04-19T18:06:04.358Z,13.60
2023-04-19T18:08:31.879Z,13.60
2023-04-19T18:10:59.176Z,13.38
2023-04-19T18:13:26.566Z,13.42
2023-04-19T18:15:53.519Z,13.30
2023-04-19T18:18:20.255Z,13.24
2023-04-19T18:20:47.035Z,13.06
2023-04-19T18:23:13.772Z,13.29
2023-04-19T18:25:45.922Z,13.08
2023-04-19T18:28:12.668Z,12.98
2023-04-19T18:30:39.484Z,13.00
2023-04-19T18:33:06.808Z,13.16
2023-04-19T18:35:36.403Z,12.95
2023-04-19T18:38:03.645Z,12.95
2023-04-19T18:40:30.287Z,13.00
2023-04-19T18:42:57.083Z,12.91
2023-04-19T18:45:24.104Z,12.94
2023-04-19T18:47:51.800Z,12.93
2023-04-19T18:50:19.320Z,12.78
2023-04-19T18:52:46.483Z,12.86
2023-04-19T18:55:13.799Z,12.78
2023-04-19T18:57:40.829Z,12.66
2023-04-19T19:00:11.691Z,12.81
2023-04-19T19:02:40.945Z,12.77
2023-04-19T19:05:09.969Z,12.59
2023-04-19T19:07:37.773Z,12.56
2023-04-19T19:10:18.150Z,12.51
2023-04-19T19:12:47.952Z,12.36
2023-04-19T19:15:15.020Z,12.75
2023-04-19T19:17:43.140Z,12.57
2023-04-19T19:20:10.435Z,12.42
2023-04-19T19:22:37.267Z,12.33
2023-04-19T19:25:04.446Z,12.40
2023-04-19T19:27:31.309Z,12.28
2023-04-19T19:29:58.854Z,12.23
2023-04-19T19:32:25.895Z,12.34
2023-04-19T19:34:56.658Z,12.36
2023-04-19T19:37:27.748Z,12.40
2023-04-19T19:39:56.339Z,12.44
2023-04-19T19:42:24.056Z,12.45
2023-04-19T19:44:55.337Z,12.39
2023-04-19T19:47:24.374Z,12.31
2023-04-19T19:50:35.020Z,12.33
2023-04-19T19:52:38.442Z,12.24
2023-04-19T19:55:08.368Z,12.10
2023-04-19T20:00:36.641Z,12.14
2023-04-19T20:02:58.964Z,12.16
2023-04-19T20:05:27.165Z,12.13
2023-04-19T20:08:05.797Z,12.06
2023-04-19T20:10:32.863Z,12.15
2023-04-19T20:13:01.735Z,12.11
2023-04-19T20:15:30.198Z,12.06
2023-04-19T20:17:57.663Z,12.02
2023-04-19T20:20:24.713Z,11.95
2023-04-19T20:22:52.640Z,12.04
2023-04-19T20:25:19.528Z,11.95
2023-04-19T20:27:46.876Z,11.92
2023-04-19T20:30:14.207Z,11.84
2023-04-19T20:32:42.660Z,11.66
2023-04-19T20:35:12.262Z,11.67
2023-04-19T20:37:42.501Z,11.60
2023-04-19T20:40:12.395Z,11.75
2023-04-19T20:42:40.289Z,11.66
2023-04-19T20:45:09.859Z,11.70
2023-04-19T20:47:38.767Z,11.69
2023-04-19T20:50:09.220Z,11.55
2023-04-19T20:52:36.167Z,11.40
2023-04-19T20:55:03.300Z,11.43
2023-04-19T20:57:31.262Z,11.34
2023-04-19T20:59:59.808Z,11.38
2023-04-19T21:02:30.016Z,11.26
2023-04-19T21:04:56.775Z,11.12
2023-04-19T21:07:23.524Z,11.11
2023-04-19T21:09:50.262Z,11.09
2023-04-19T21:12:17.581Z,11.00
2023-04-19T21:14:45.610Z,10.84
2023-04-19T21:17:13.930Z,10.88
2023-04-19T21:19:40.883Z,10.94
2023-04-19T21:22:07.764Z,10.97
2023-04-19T21:24:34.615Z,10.88
2023-04-19T21:27:01.629Z,10.91
2023-04-19T21:29:28.644Z,11.05
2023-04-19T21:31:56.056Z,10.98
2023-04-19T21:34:22.937Z,10.78
2023-04-19T21:36:49.795Z,10.80
2023-04-19T21:39:17.413Z,10.64
2023-04-19T21:41:44.490Z,10.66
2023-04-19T21:44:11.328Z,10.63
2023-04-19T21:46:38.154Z,10.51
2023-04-19T21:49:04.909Z,10.49
2023-04-19T21:51:31.965Z,10.37
2023-04-19T21:53:58.662Z,10.31
2023-04-19T21:56:25.520Z,10.37
2023-04-19T21:58:52.268Z,10.59
2023-04-19T22:01:18.998Z,10.66
2023-04-19T22:03:45.921Z,10.60
2023-04-19T22:06:13.926Z,10.60
2023-04-19T22:08:41.670Z,10.61
2023-04-19T22:11:08.352Z,10.62
2023-04-19T22:13:37.435Z,10.67
2023-04-19T22:16:04.556Z,10.51
2023-04-19T22:18:31.328Z,10.41
2023-04-19T22:20:57.971Z,10.31
2023-04-19T22:23:24.644Z,10.48
2023-04-19T22:25:51.321Z,10.41
2023-04-19T22:28:18.006Z,10.45
2023-04-19T22:30:44.666Z,10.26
2023-04-19T22:33:11.697Z,10.38
2023-04-19T22:35:38.619Z,10.25
2023-04-19T22:38:05.369Z,10.29
2023-04-19T22:40:32.231Z,10.30
2023-04-19T22:42:58.859Z,10.18
2023-04-19T22:45:26.648Z,10.26
2023-04-19T22:47:53.374Z,10.26
2023-04-19T22:50:20.277Z,10.16
2023-04-19T22:52:47.016Z,10.18
2023-04-19T22:55:13.668Z,10.11
2023-04-19T22:57:41.375Z,10.15
2023-04-19T23:00:10.619Z,10.15
2023-04-19T23:02:38.521Z,10.16
2023-04-19T23:05:06.601Z,10.10
2023-04-19T23:07:33.632Z,10.08
2023-04-19T23:10:00.961Z,10.05
2023-04-19T23:12:31.220Z,10.03
2023-04-19T23:14:58.279Z,10.00
2023-04-19T23:17:25.428Z,9.86
2023-04-19T23:19:52.076Z,9.83
2023-04-19T23:22:18.747Z,9.88
2023-04-19T23:24:45.490Z,10.01
2023-04-19T23:27:12.478Z,9.72
2023-04-19T23:29:39.119Z,9.69
2023-04-19T23:32:05.837Z,9.64
2023-04-19T23:34:32.612Z,9.73
2023-04-19T23:36:59.764Z,9.58
2023-04-19T23:39:26.773Z,9.80
2023-04-19T23:41:53.700Z,9.67
2023-04-19T23:44:20.392Z,9.67
2023-04-19T23:46:47.257Z,9.78
2023-04-19T23:49:14.167Z,9.58
2023-04-19T23:51:40.928Z,9.47
2023-04-19T23:54:07.592Z,9.52
2023-04-19T23:56:34.448Z,9.41
2023-04-19T23:59:01.428Z,9.46
